createdAt,value
2018-07-25T00:00:11.270Z,25.90
2018-07-25T00:02:40.054Z,25.80
2018-07-25T00:05:08.760Z,25.80
2018-07-25T00:07:38.222Z,25.70
2018-07-25T00:10:08.373Z,25.60
2018-07-25T00:12:37.246Z,25.60
2018-07-25T00:15:06.192Z,25.50
2018-07-25T00:17:35.002Z,25.40
2018-07-25T00:20:03.807Z,25.40
2018-07-25T00:22:33.167Z,25.30
2018-07-25T00:25:02.323Z,25.20
2018-07-25T00:27:30.950Z,25.20
2018-07-25T00:29:59.613Z,25.10
2018-07-25T00:32:28.893Z,25.00
2018-07-25T00:34:57.513Z,24.90
2018-07-25T00:37:26.665Z,24.90
2018-07-25T00:39:55.309Z,24.80
2018-07-25T00:42:23.925Z,24.70
2018-07-25T00:44:52.596Z,24.60
2018-07-25T00:47:21.250Z,24.60
2018-07-25T00:49:49.870Z,24.40
2018-07-25T00:52:18.547Z,24.40
2018-07-25T00:54:47.449Z,24.30
2018-07-25T00:57:16.167Z,24.30
2018-07-25T00:59:45.505Z,24.30
2018-07-25T01:02:14.076Z,24.20
2018-07-25T01:04:42.787Z,24.10
2018-07-25T01:07:11.388Z,24.00
2018-07-25T01:09:40.080Z,23.90
2018-07-25T01:12:08.931Z,23.90
2018-07-25T01:14:37.512Z,23.80
2018-07-25T01:17:06.419Z,23.80
2018-07-25T01:19:35.076Z,23.70
2018-07-25T01:22:03.907Z,23.60
2018-07-25T01:24:32.710Z,23.50
2018-07-25T01:27:01.301Z,23.50
2018-07-25T01:29:30.319Z,23.50
2018-07-25T01:31:58.898Z,23.40
2018-07-25T01:34:28.264Z,23.30
2018-07-25T01:36:56.919Z,23.30
2018-07-25T01:39:25.591Z,23.20
2018-07-25T01:41:54.235Z,23.20
2018-07-25T01:44:22.889Z,23.20
2018-07-25T01:46:51.819Z,23.10
2018-07-25T01:49:20.436Z,23.10
2018-07-25T01:51:49.462Z,23.10
2018-07-25T01:54:18.040Z,23.10
2018-07-25T01:59:29.868Z,22.90
2018-07-25T02:01:59.740Z,22.90
2018-07-25T02:04:28.889Z,22.90
2018-07-25T02:06:57.497Z,22.90
2018-07-25T02:09:26.050Z,22.80
2018-07-25T02:11:54.766Z,22.70
2018-07-25T02:14:23.419Z,22.70
2018-07-25T02:16:52.521Z,22.60
2018-07-25T02:19:21.198Z,22.70
2018-07-25T02:21:49.984Z,22.70
2018-07-25T02:24:18.582Z,22.60
2018-07-25T02:26:47.386Z,22.60
2018-07-25T02:29:16.299Z,22.50
2018-07-25T02:31:44.946Z,22.50
2018-07-25T02:34:18.792Z,22.50
2018-07-25T02:36:47.509Z,22.50
2018-07-25T02:39:16.222Z,22.50
2018-07-25T02:41:45.541Z,22.50
2018-07-25T02:44:14.734Z,22.50
2018-07-25T02:46:44.001Z,22.40
2018-07-25T02:49:12.672Z,22.40
2018-07-25T02:51:41.608Z,22.30
2018-07-25T02:54:10.278Z,22.30
2018-07-25T02:56:38.887Z,22.30
2018-07-25T02:59:07.511Z,22.30
2018-07-25T03:01:36.173Z,22.20
2018-07-25T03:04:04.786Z,22.20
2018-07-25T03:06:33.412Z,22.20
2018-07-25T03:09:02.303Z,22.20
2018-07-25T03:11:30.859Z,22.20
2018-07-25T03:13:59.613Z,22.20
2018-07-25T03:16:28.233Z,22.20
2018-07-25T03:18:57.509Z,22.10
2018-07-25T03:21:26.178Z,22.10
2018-07-25T03:23:55.429Z,22.10
2018-07-25T03:26:24.018Z,22.00
2018-07-25T03:28:52.643Z,22.00
2018-07-25T03:31:21.357Z,21.90
2018-07-25T03:33:49.929Z,21.90
2018-07-25T03:36:18.565Z,21.90
2018-07-25T03:38:47.243Z,21.90
2018-07-25T03:41:15.904Z,21.90
2018-07-25T03:43:44.844Z,21.80
2018-07-25T03:46:13.631Z,21.80
2018-07-25T03:48:42.271Z,21.80
2018-07-25T03:51:10.983Z,21.80
2018-07-25T03:53:39.637Z,21.70
2018-07-25T03:56:08.323Z,21.60
2018-07-25T03:58:37.032Z,21.70
2018-07-25T04:01:05.801Z,21.60
2018-07-25T04:03:34.467Z,21.60
2018-07-25T04:06:03.120Z,21.60
2018-07-25T04:08:31.752Z,21.60
2018-07-25T04:11:02.720Z,21.50
2018-07-25T04:13:31.350Z,21.50
2018-07-25T04:16:00.338Z,21.40
2018-07-25T04:18:29.047Z,21.30
2018-07-25T04:20:57.669Z,21.40
2018-07-25T04:23:27.008Z,21.40
2018-07-25T04:25:55.604Z,21.30
2018-07-25T04:28:24.350Z,21.40
2018-07-25T04:30:53.010Z,21.40
2018-07-25T04:33:21.727Z,21.40
2018-07-25T04:35:50.422Z,21.50
2018-07-25T04:38:19.474Z,21.60
2018-07-25T04:40:48.152Z,21.60
2018-07-25T04:43:16.777Z,21.50
2018-07-25T04:45:45.387Z,21.60
2018-07-25T04:48:14.018Z,21.60
2018-07-25T04:50:42.734Z,21.60
2018-07-25T04:53:11.458Z,21.60
2018-07-25T04:55:54.689Z,21.60
2018-07-25T04:58:23.439Z,21.60
2018-07-25T05:00:52.028Z,21.70
2018-07-25T05:03:20.675Z,21.90
2018-07-25T05:05:49.274Z,22.30
2018-07-25T05:08:17.885Z,23.00
2018-07-25T05:10:46.488Z,23.50
2018-07-25T05:13:15.122Z,24.10
2018-07-25T05:15:43.836Z,24.70
2018-07-25T05:18:12.510Z,25.30
2018-07-25T05:20:41.105Z,25.40
2018-07-25T05:23:09.889Z,25.60
2018-07-25T05:25:38.504Z,25.70
2018-07-25T05:28:07.447Z,25.90
2018-07-25T05:30:36.036Z,26.20
2018-07-25T05:33:05.010Z,26.40
2018-07-25T05:35:33.607Z,26.40
2018-07-25T05:38:02.663Z,26.20
2018-07-25T05:40:31.352Z,26.30
2018-07-25T05:42:59.993Z,26.50
2018-07-25T05:45:28.709Z,26.50
2018-07-25T05:47:57.671Z,26.90
2018-07-25T05:50:26.370Z,26.70
2018-07-25T05:52:55.316Z,27.10
2018-07-25T05:55:23.981Z,27.40
2018-07-25T05:57:53.185Z,27.20
2018-07-25T06:00:21.838Z,27.20
2018-07-25T06:02:50.530Z,27.00
2018-07-25T06:05:19.163Z,27.40
2018-07-25T06:07:47.878Z,27.40
2018-07-25T06:10:16.586Z,27.50
2018-07-25T06:12:45.397Z,27.80
2018-07-25T06:15:14.019Z,27.90
2018-07-25T06:17:42.705Z,28.00
2018-07-25T06:20:11.826Z,28.30
2018-07-25T06:22:40.461Z,28.20
2018-07-25T06:25:09.126Z,28.40
2018-07-25T06:27:37.701Z,28.10
2018-07-25T06:30:06.626Z,28.30
2018-07-25T06:32:35.268Z,28.70
2018-07-25T06:35:03.949Z,28.70
2018-07-25T06:37:32.735Z,29.00
2018-07-25T06:40:01.590Z,28.80
2018-07-25T06:42:30.381Z,28.60
2018-07-25T06:44:58.957Z,28.90
2018-07-25T06:47:27.649Z,28.80
2018-07-25T06:49:56.325Z,29.10
2018-07-25T06:52:31.456Z,29.20
2018-07-25T06:55:00.052Z,28.80
2018-07-25T06:57:28.708Z,28.40
2018-07-25T06:59:57.353Z,27.90
2018-07-25T07:02:26.043Z,27.60
2018-07-25T07:04:54.627Z,27.30
2018-07-25T07:07:23.334Z,27.20
2018-07-25T07:09:52.191Z,27.00
2018-07-25T07:12:20.874Z,26.90
2018-07-25T07:14:49.498Z,26.80
2018-07-25T07:17:18.196Z,26.70
2018-07-25T07:19:46.843Z,26.60
2018-07-25T07:22:15.589Z,26.40
2018-07-25T07:24:44.237Z,26.50
2018-07-25T07:27:12.875Z,26.60
2018-07-25T07:29:41.525Z,26.70
2018-07-25T07:32:10.175Z,26.70
2018-07-25T07:34:38.902Z,26.50
2018-07-25T07:37:07.514Z,26.60
2018-07-25T07:39:36.211Z,26.80
2018-07-25T07:42:04.875Z,26.80
2018-07-25T07:44:33.569Z,26.90
2018-07-25T07:47:02.200Z,27.00
2018-07-25T07:49:30.780Z,27.10
2018-07-25T07:51:59.447Z,27.10
2018-07-25T07:54:28.049Z,27.20
2018-07-25T07:56:56.708Z,27.50
2018-07-25T07:59:25.376Z,27.40
2018-07-25T08:01:53.988Z,27.40
2018-07-25T08:04:22.732Z,27.50
2018-07-25T08:06:51.429Z,27.60
2018-07-25T08:09:20.100Z,27.70
2018-07-25T08:11:48.754Z,27.90
2018-07-25T08:14:17.483Z,28.00
2018-07-25T08:16:46.126Z,28.00
2018-07-25T08:19:14.814Z,28.00
2018-07-25T08:21:43.524Z,28.10
2018-07-25T08:24:12.270Z,28.30
2018-07-25T08:26:41.448Z,28.30
2018-07-25T08:29:10.035Z,28.30
2018-07-25T08:31:38.726Z,28.40
2018-07-25T08:34:07.410Z,28.50
2018-07-25T08:36:36.048Z,28.50
2018-07-25T08:39:08.030Z,28.50
2018-07-25T08:41:36.717Z,28.50
2018-07-25T08:44:06.226Z,28.70
2018-07-25T08:46:34.843Z,28.80
2018-07-25T08:49:03.578Z,28.80
2018-07-25T08:51:32.202Z,28.90
2018-07-25T08:54:00.889Z,29.00
2018-07-25T08:56:29.465Z,29.10
2018-07-25T08:58:58.101Z,29.20
2018-07-25T09:01:27.100Z,29.30
2018-07-25T09:03:55.726Z,29.40
2018-07-25T09:06:24.430Z,29.60
2018-07-25T09:08:53.059Z,29.80
2018-07-25T09:11:28.015Z,29.80
2018-07-25T09:13:57.610Z,29.80
2018-07-25T09:16:26.277Z,29.80
2018-07-25T09:18:54.938Z,29.90
2018-07-25T09:21:23.628Z,30.10
2018-07-25T09:23:52.273Z,30.10
2018-07-25T09:26:20.969Z,30.00
2018-07-25T09:28:49.626Z,30.10
2018-07-25T09:31:18.332Z,30.20
2018-07-25T09:33:47.068Z,30.40
2018-07-25T09:36:16.018Z,30.50
2018-07-25T09:38:44.716Z,30.60
2018-07-25T09:41:13.418Z,30.50
2018-07-25T09:43:42.125Z,30.60
2018-07-25T09:46:10.808Z,30.60
2018-07-25T09:48:39.486Z,30.80
2018-07-25T09:51:08.235Z,30.90
2018-07-25T09:53:43.137Z,30.90
2018-07-25T09:56:11.739Z,30.90
2018-07-25T09:58:40.416Z,30.90
2018-07-25T10:03:54.335Z,31.00
2018-07-25T10:06:36.641Z,31.00
2018-07-25T10:09:15.540Z,31.20
2018-07-25T10:11:52.140Z,31.20
2018-07-25T10:14:29.139Z,31.30
2018-07-25T10:17:03.291Z,31.30
2018-07-25T10:19:34.399Z,31.40
2018-07-25T10:22:10.596Z,31.40
2018-07-25T10:24:46.341Z,31.50
2018-07-25T10:27:20.912Z,31.70
2018-07-25T10:29:54.557Z,31.80
2018-07-25T10:32:31.064Z,31.90
2018-07-25T10:35:03.660Z,32.00
2018-07-25T10:37:45.013Z,32.00
2018-07-25T10:42:54.834Z,32.10
2018-07-25T10:45:28.473Z,32.20
2018-07-25T10:48:11.915Z,32.30
2018-07-25T10:50:47.023Z,32.30
2018-07-25T10:53:28.382Z,32.50
2018-07-25T10:56:02.304Z,32.60
2018-07-25T10:58:46.249Z,32.60
2018-07-25T11:01:17.338Z,32.60
2018-07-25T11:04:05.340Z,32.60
2018-07-25T11:06:37.426Z,32.60
2018-07-25T11:09:14.279Z,32.60
2018-07-25T11:11:45.331Z,32.70
2018-07-25T11:14:27.258Z,32.70
2018-07-25T11:17:00.341Z,32.80
2018-07-25T11:19:38.830Z,32.70
2018-07-25T11:22:17.321Z,32.70
2018-07-25T11:24:53.899Z,32.80
2018-07-25T11:30:27.928Z,33.20
2018-07-25T11:33:09.182Z,33.30
2018-07-25T11:35:40.918Z,33.40
2018-07-25T11:38:18.478Z,33.60
2018-07-25T11:40:53.398Z,33.70
2018-07-25T11:43:28.597Z,33.80
2018-07-25T11:48:48.005Z,33.60
2018-07-25T11:51:30.578Z,33.80
2018-07-25T11:54:03.772Z,33.90
2018-07-25T11:56:46.089Z,34.00
2018-07-25T11:59:25.583Z,33.90
2018-07-25T12:02:01.456Z,33.80
2018-07-25T12:04:37.361Z,34.00
2018-07-25T12:07:10.334Z,34.10
2018-07-25T12:09:50.027Z,34.00
2018-07-25T12:12:25.735Z,34.00
2018-07-25T12:15:11.728Z,33.90
2018-07-25T12:17:55.044Z,34.00
2018-07-25T12:20:34.993Z,34.30
2018-07-25T12:23:17.591Z,34.30
2018-07-25T12:25:53.812Z,34.20
2018-07-25T12:28:30.358Z,34.30
2018-07-25T12:36:38.680Z,34.20
2018-07-25T12:39:11.645Z,34.20
2018-07-25T12:41:51.362Z,34.10
2018-07-25T12:44:33.814Z,34.20
2018-07-25T12:47:20.557Z,34.20
2018-07-25T12:50:05.197Z,34.20
2018-07-25T12:52:42.891Z,34.40
2018-07-25T12:55:22.504Z,34.30
2018-07-25T12:57:57.179Z,34.20
2018-07-25T13:00:36.191Z,34.10
2018-07-25T13:05:52.913Z,33.90
2018-07-25T13:08:21.522Z,33.90
2018-07-25T13:10:50.167Z,33.90
2018-07-25T13:13:18.945Z,33.80
2018-07-25T13:15:47.619Z,33.90
2018-07-25T13:18:16.198Z,34.00
2018-07-25T13:20:44.945Z,34.20
2018-07-25T13:23:13.523Z,34.30
2018-07-25T13:25:42.161Z,34.30
2018-07-25T13:28:10.817Z,34.40
2018-07-25T13:30:39.457Z,34.60
2018-07-25T13:33:08.347Z,34.80
2018-07-25T13:35:36.977Z,34.90
2018-07-25T13:38:05.549Z,35.00
2018-07-25T13:40:34.202Z,35.10
2018-07-25T13:43:02.887Z,35.00
2018-07-25T13:45:31.559Z,35.00
2018-07-25T13:48:00.204Z,35.00
2018-07-25T13:50:28.755Z,35.00
2018-07-25T13:52:57.422Z,35.10
2018-07-25T13:55:25.961Z,35.10
2018-07-25T13:57:54.556Z,35.40
2018-07-25T14:00:23.287Z,35.50
2018-07-25T14:02:52.100Z,35.30
2018-07-25T14:05:20.794Z,35.20
2018-07-25T14:07:49.520Z,35.20
2018-07-25T14:10:18.283Z,35.20
2018-07-25T14:12:46.862Z,35.00
2018-07-25T14:15:15.477Z,34.60
2018-07-25T14:17:44.108Z,34.10
2018-07-25T14:20:12.812Z,34.10
2018-07-25T14:22:41.579Z,34.20
2018-07-25T14:25:10.259Z,34.30
2018-07-25T14:27:39.191Z,34.30
2018-07-25T14:30:07.898Z,34.30
2018-07-25T14:32:36.726Z,34.20
2018-07-25T14:35:05.433Z,34.20
2018-07-25T14:37:34.069Z,34.20
2018-07-25T14:40:02.671Z,34.20
2018-07-25T14:42:31.258Z,34.10
2018-07-25T14:45:00.051Z,33.90
2018-07-25T14:47:28.801Z,33.80
2018-07-25T14:49:57.381Z,33.60
2018-07-25T14:52:26.127Z,33.60
2018-07-25T14:54:54.869Z,33.50
2018-07-25T14:57:23.903Z,33.50
2018-07-25T14:59:52.629Z,33.50
2018-07-25T15:02:21.496Z,33.40
2018-07-25T15:04:50.027Z,33.40
2018-07-25T15:07:18.626Z,33.30
2018-07-25T15:09:47.312Z,33.40
2018-07-25T15:15:03.350Z,33.30
2018-07-25T15:17:32.079Z,33.30
2018-07-25T15:20:00.697Z,33.30
2018-07-25T15:22:30.084Z,33.40
2018-07-25T15:24:58.864Z,33.40
2018-07-25T15:27:27.528Z,33.40
2018-07-25T15:29:56.843Z,33.40
2018-07-25T15:32:25.484Z,33.40
2018-07-25T15:34:57.871Z,33.30
2018-07-25T15:37:26.640Z,33.20
2018-07-25T15:39:55.311Z,33.20
2018-07-25T15:42:24.060Z,33.00
2018-07-25T15:44:52.758Z,32.90
2018-07-25T15:47:21.452Z,32.30
2018-07-25T15:49:49.989Z,32.00
2018-07-25T15:52:19.318Z,31.80
2018-07-25T15:54:47.946Z,31.60
2018-07-25T15:57:16.739Z,31.60
2018-07-25T15:59:45.449Z,31.50
2018-07-25T16:02:14.090Z,31.50
2018-07-25T16:04:42.683Z,31.40
2018-07-25T16:07:11.350Z,31.50
2018-07-25T16:09:40.055Z,31.70
2018-07-25T16:12:09.603Z,31.70
2018-07-25T16:14:38.424Z,31.50
2018-07-25T16:17:07.045Z,31.40
2018-07-25T16:19:35.625Z,31.40
2018-07-25T16:22:04.474Z,31.40
2018-07-25T16:24:33.076Z,31.40
2018-07-25T16:27:02.597Z,31.30
2018-07-25T16:29:31.304Z,31.20
2018-07-25T16:32:00.061Z,31.10
2018-07-25T16:34:28.674Z,31.10
2018-07-25T16:36:57.384Z,30.80
2018-07-25T16:39:26.067Z,30.50
2018-07-25T16:41:54.693Z,30.30
2018-07-25T16:44:23.444Z,30.30
2018-07-25T16:46:52.167Z,30.20
2018-07-25T16:49:20.865Z,30.20
2018-07-25T16:51:49.498Z,30.20
2018-07-25T16:54:19.008Z,30.20
2018-07-25T16:56:47.664Z,30.20
2018-07-25T16:59:16.203Z,30.10
2018-07-25T17:01:44.829Z,29.90
2018-07-25T17:04:13.465Z,29.90
2018-07-25T17:06:42.131Z,30.00
2018-07-25T17:09:12.157Z,29.90
2018-07-25T17:11:41.057Z,29.90
2018-07-25T17:14:09.699Z,29.70
2018-07-25T17:16:40.189Z,29.60
2018-07-25T17:19:09.068Z,29.50
2018-07-25T17:21:37.722Z,29.40
2018-07-25T17:24:06.975Z,29.30
2018-07-25T17:26:35.859Z,29.20
2018-07-25T17:29:04.564Z,29.10
2018-07-25T17:31:33.187Z,29.00
2018-07-25T17:34:01.822Z,29.00
2018-07-25T17:36:30.581Z,28.80
2018-07-25T17:38:59.133Z,28.70
2018-07-25T17:41:27.849Z,28.70
2018-07-25T17:43:56.449Z,28.70
2018-07-25T17:46:25.095Z,28.50
2018-07-25T17:48:54.100Z,28.50
2018-07-25T17:51:22.804Z,28.50
2018-07-25T17:53:51.495Z,28.40
2018-07-25T17:56:20.122Z,28.30
2018-07-25T17:58:48.826Z,28.20
2018-07-25T18:01:17.518Z,28.10
2018-07-25T18:03:46.184Z,28.10
2018-07-25T18:06:14.852Z,28.00
2018-07-25T18:08:43.462Z,28.00
2018-07-25T18:11:14.246Z,27.90
2018-07-25T18:13:49.003Z,28.00
2018-07-25T18:16:17.690Z,27.90
2018-07-25T18:18:46.300Z,27.90
2018-07-25T18:21:15.097Z,27.90
2018-07-25T18:23:43.904Z,27.90
2018-07-25T18:26:13.972Z,27.90
2018-07-25T18:28:44.344Z,27.90
2018-07-25T18:31:16.014Z,28.00
2018-07-25T18:33:44.740Z,27.90
2018-07-25T18:36:13.996Z,27.90
2018-07-25T18:38:42.866Z,27.90
2018-07-25T18:41:12.586Z,27.80
2018-07-25T18:43:43.050Z,27.70
2018-07-25T18:46:12.024Z,27.50
2018-07-25T18:48:40.834Z,27.40
2018-07-25T18:51:09.462Z,27.40
2018-07-25T18:53:38.378Z,27.20
2018-07-25T18:56:07.449Z,27.20
2018-07-25T18:58:38.094Z,27.10
2018-07-25T19:01:07.966Z,27.00
2018-07-25T19:03:37.540Z,26.90
2018-07-25T19:06:06.172Z,26.80
2018-07-25T19:08:34.805Z,26.70
2018-07-25T19:11:03.856Z,26.60
2018-07-25T19:13:35.338Z,26.50
2018-07-25T19:16:04.944Z,26.50
2018-07-25T19:18:34.117Z,26.40
2018-07-25T19:21:03.301Z,26.40
2018-07-25T19:23:32.564Z,26.40
2018-07-25T19:26:01.520Z,26.30
2018-07-25T19:28:30.370Z,26.30
2018-07-25T19:30:59.434Z,26.30
2018-07-25T19:33:28.559Z,26.30
2018-07-25T19:35:57.897Z,26.30
2018-07-25T19:38:27.181Z,26.30
2018-07-25T19:40:56.332Z,26.30
2018-07-25T19:43:25.603Z,26.20
2018-07-25T19:45:54.829Z,26.20
2018-07-25T19:48:24.100Z,26.20
2018-07-25T19:50:53.223Z,26.20
2018-07-25T19:53:22.884Z,26.20
2018-07-25T19:55:52.001Z,26.20
2018-07-25T19:58:21.576Z,26.20
2018-07-25T20:00:50.654Z,26.20
2018-07-25T20:03:21.177Z,26.20
2018-07-25T20:05:50.252Z,26.10
2018-07-25T20:08:20.548Z,26.10
2018-07-25T20:10:50.707Z,26.00
2018-07-25T20:13:21.291Z,26.00
2018-07-25T20:15:58.255Z,25.90
2018-07-25T20:18:28.266Z,26.00
2018-07-25T20:20:57.752Z,25.90
2018-07-25T20:23:27.604Z,25.90
2018-07-25T20:25:56.771Z,25.80
2018-07-25T20:28:27.607Z,25.80
2018-07-25T20:30:56.758Z,25.80
2018-07-25T20:33:26.059Z,25.70
2018-07-25T20:35:55.118Z,25.70
2018-07-25T20:38:25.123Z,25.60
2018-07-25T20:40:54.515Z,25.60
2018-07-25T20:43:24.563Z,25.60
2018-07-25T20:45:56.801Z,25.50
2018-07-25T20:48:27.689Z,25.50
2018-07-25T20:50:56.225Z,25.40
2018-07-25T20:53:25.534Z,25.30
2018-07-25T20:55:54.107Z,25.30
2018-07-25T20:58:22.774Z,25.30
2018-07-25T21:00:51.660Z,25.40
2018-07-25T21:03:20.424Z,25.40
2018-07-25T21:05:48.995Z,25.20
2018-07-25T21:08:17.865Z,25.30
2018-07-25T21:10:46.752Z,25.20
2018-07-25T21:13:15.852Z,25.20
2018-07-25T21:15:44.440Z,25.30
2018-07-25T21:18:13.096Z,25.30
2018-07-25T21:20:41.682Z,25.30
2018-07-25T21:23:10.265Z,25.20
2018-07-25T21:28:26.889Z,25.20
2018-07-25T21:30:55.571Z,25.10
2018-07-25T21:33:24.329Z,25.10
2018-07-25T21:35:52.940Z,25.10
2018-07-25T21:41:01.579Z,25.00
2018-07-25T21:43:30.188Z,24.90
2018-07-25T21:45:58.713Z,24.90
2018-07-25T21:48:27.368Z,24.80
2018-07-25T21:50:55.925Z,24.80
2018-07-25T21:53:24.481Z,24.90
2018-07-25T21:55:53.125Z,24.80
2018-07-25T21:58:22.043Z,24.80
2018-07-25T22:00:54.483Z,24.90
2018-07-25T22:03:23.235Z,24.90
2018-07-25T22:05:51.810Z,24.80
2018-07-25T22:08:20.431Z,24.80
2018-07-25T22:10:49.006Z,24.80
2018-07-25T22:13:18.557Z,24.80
2018-07-25T22:15:47.256Z,24.70
2018-07-25T22:18:15.850Z,24.70
2018-07-25T22:20:45.281Z,24.70
2018-07-25T22:23:14.122Z,24.60
2018-07-25T22:25:42.735Z,24.60
2018-07-25T22:28:14.499Z,24.50
2018-07-25T22:30:43.052Z,24.60
2018-07-25T22:33:11.578Z,24.60
2018-07-25T22:35:40.131Z,24.40
2018-07-25T22:38:08.694Z,24.50
2018-07-25T22:40:37.315Z,24.50
2018-07-25T22:43:06.170Z,24.50
2018-07-25T22:45:34.788Z,24.50
2018-07-25T22:48:04.061Z,24.50
2018-07-25T22:50:32.653Z,24.40
2018-07-25T22:53:01.840Z,24.40
2018-07-25T22:55:30.541Z,24.40
2018-07-25T22:57:59.271Z,24.40
2018-07-25T23:00:27.987Z,24.50
2018-07-25T23:02:56.548Z,24.40
2018-07-25T23:05:25.094Z,24.40
2018-07-25T23:07:59.135Z,24.40
2018-07-25T23:10:27.969Z,24.40
2018-07-25T23:12:56.518Z,24.40
2018-07-25T23:15:25.047Z,24.30
2018-07-25T23:17:54.348Z,24.30
2018-07-25T23:20:22.957Z,24.30
2018-07-25T23:22:57.483Z,24.30
2018-07-25T23:25:26.450Z,24.30
2018-07-25T23:27:56.248Z,24.30
2018-07-25T23:30:25.512Z,24.30
2018-07-25T23:32:54.137Z,24.20
2018-07-25T23:35:23.050Z,24.20
2018-07-25T23:37:52.071Z,24.10
2018-07-25T23:40:20.734Z,24.10
2018-07-25T23:42:54.400Z,24.10
2018-07-25T23:45:22.936Z,24.00
2018-07-25T23:47:53.997Z,24.00
2018-07-25T23:50:22.515Z,24.00
2018-07-25T23:52:51.093Z,24.00
2018-07-25T23:55:20.183Z,24.00
2018-07-25T23:57:50.268Z,24.00
